Time;durP1;ratioP1;P1;durP2;ratioP2;P2;SDS_P1;SDS_P2;PMS_P1;PMS_P2;Temp;Humidity;BMP_temperature;BMP_pressure;BME280_temperature;BME280_humidity;BME280_pressure;Samples;Min_cycle;Max_cycle;Signal;HPM_P1;HPM_P2
2023/04/22 00:00:28;;;;;;;9.77;4.50;;;12.70;99.90;;;;;;5073496;28;20060;-41
2023/04/22 00:02:55;;;;;;;7.40;4.47;;;12.60;99.90;;;;;;5073392;28;20048;-41
2023/04/22 00:05:21;;;;;;;8.60;4.55;;;12.60;99.90;;;;;;5072303;28;20095;-41
2023/04/22 00:07:47;;;;;;;8.15;4.82;;;12.60;99.90;;;;;;5073255;28;20079;-41
2023/04/22 00:10:12;;;;;;;8.93;4.75;;;12.60;99.90;;;;;;5073344;28;20446;-41
2023/04/22 00:12:38;;;;;;;7.78;4.70;;;12.60;99.90;;;;;;5073408;28;20051;-42
2023/04/22 00:15:05;;;;;;;7.15;4.28;;;12.50;99.90;;;;;;5072307;28;20480;-41
2023/04/22 00:17:31;;;;;;;7.88;4.38;;;12.50;99.90;;;;;;5073404;28;20045;-41
2023/04/22 00:19:58;;;;;;;7.70;4.13;;;12.50;99.90;;;;;;5072232;28;20079;-41
2023/04/22 00:22:23;;;;;;;6.90;4.07;;;12.50;99.90;;;;;;5073250;28;20098;-41
2023/04/22 00:24:49;;;;;;;7.43;4.60;;;12.50;99.90;;;;;;5038874;28;20044;-41
2023/04/22 00:27:15;;;;;;;8.67;4.47;;;12.40;99.90;;;;;;5072282;28;20040;-41
2023/04/22 00:29:40;;;;;;;6.67;3.80;;;12.30;99.90;;;;;;5073216;28;20048;-41
2023/04/22 00:32:06;;;;;;;8.13;4.33;;;12.30;99.90;;;;;;5073226;28;20484;-41
2023/04/22 00:34:31;;;;;;;6.57;3.93;;;12.20;99.90;;;;;;5073306;28;20058;-41
2023/04/22 00:36:57;;;;;;;7.57;4.67;;;12.10;99.90;;;;;;5075775;28;20052;-42
2023/04/22 00:39:23;;;;;;;6.80;4.47;;;12.20;99.90;;;;;;5076982;28;20088;-41
2023/04/22 00:41:49;;;;;;;8.00;4.37;;;12.20;99.90;;;;;;5059389;28;20053;-41
2023/04/22 00:44:14;;;;;;;7.10;4.07;;;12.20;99.90;;;;;;5059172;28;20056;-41
2023/04/22 00:46:40;;;;;;;6.80;4.60;;;12.20;99.90;;;;;;5076823;28;20044;-41
2023/04/22 00:49:07;;;;;;;7.00;4.10;;;12.10;99.90;;;;;;5076803;28;20423;-41
2023/04/22 00:51:32;;;;;;;7.80;4.47;;;12.10;99.90;;;;;;5075247;28;20495;-41
2023/04/22 00:54:00;;;;;;;6.80;4.00;;;12.00;99.90;;;;;;5076714;28;20045;-42
2023/04/22 00:56:28;;;;;;;6.72;4.18;;;11.90;99.90;;;;;;5076459;28;20039;-41
2023/04/22 00:58:54;;;;;;;8.50;4.50;;;11.80;99.90;;;;;;5076548;28;20117;-41
2023/04/22 01:01:21;;;;;;;8.55;4.38;;;11.70;99.90;;;;;;5076382;28;20127;-41
2023/04/22 01:03:48;;;;;;;7.40;4.05;;;11.60;99.90;;;;;;5076282;28;20511;-41
2023/04/22 01:06:15;;;;;;;6.82;4.47;;;11.50;99.90;;;;;;5075251;28;20083;-41
2023/04/22 01:08:40;;;;;;;;;;;11.30;99.90;;;;;;5075844;28;20036;-41
2023/04/22 01:11:06;;;;;;;8.18;4.80;;;11.20;99.90;;;;;;5076416;28;20367;-41
2023/04/22 01:13:32;;;;;;;6.85;4.22;;;11.10;99.90;;;;;;5075389;28;20442;-41
2023/04/22 01:16:00;;;;;;;9.32;4.88;;;11.10;99.90;;;;;;5076198;28;20044;-41
2023/04/22 01:18:26;;;;;;;8.43;4.88;;;11.00;99.90;;;;;;5076230;28;20438;-41
2023/04/22 01:20:52;;;;;;;9.68;4.60;;;10.90;99.90;;;;;;5076038;28;20105;-41
2023/04/22 01:23:21;;;;;;;7.35;4.57;;;10.90;99.90;;;;;;5076100;28;20048;-41
2023/04/22 01:25:47;;;;;;;8.38;4.70;;;10.90;99.90;;;;;;5075069;28;20040;-41
2023/04/22 01:28:15;;;;;;;7.90;4.55;;;10.90;99.90;;;;;;5074990;28;20098;-41
2023/04/22 01:30:42;;;;;;;9.35;4.28;;;10.90;99.90;;;;;;5075786;28;20076;-41
2023/04/22 01:33:08;;;;;;;8.25;4.63;;;10.90;99.90;;;;;;5074799;28;20052;-41
2023/04/22 01:35:35;;;;;;;8.90;4.43;;;10.80;99.90;;;;;;5074513;28;20391;-41
2023/04/22 01:38:06;;;;;;;8.65;4.90;;;10.80;99.90;;;;;;5074373;28;20487;-41
2023/04/22 01:40:32;;;;;;;8.85;4.93;;;10.80;99.90;;;;;;5075651;28;20480;-41
2023/04/22 01:42:59;;;;;;;7.18;4.35;;;10.90;99.90;;;;;;5075618;28;20049;-41
2023/04/22 01:45:25;;;;;;;8.60;5.03;;;10.90;99.90;;;;;;5057825;28;20048;-41
2023/04/22 01:47:51;;;;;;;7.88;5.40;;;10.90;99.90;;;;;;5073950;28;20052;-42
2023/04/22 01:50:17;;;;;;;7.50;4.73;;;10.90;99.90;;;;;;5075716;28;20040;-41
2023/04/22 01:52:43;;;;;;;9.65;5.25;;;10.90;99.90;;;;;;5075493;28;20040;-41
2023/04/22 01:55:09;;;;;;;7.60;4.60;;;10.90;99.90;;;;;;5075501;28;20040;-41
2023/04/22 01:57:34;;;;;;;10.32;4.82;;;11.00;99.90;;;;;;5075471;28;20364;-41
2023/04/22 02:00:00;;;;;;;7.73;4.63;;;11.00;99.90;;;;;;5074163;28;20484;-41
2023/04/22 02:02:26;;;;;;;8.98;5.07;;;11.00;99.90;;;;;;5074164;28;20049;-41
2023/04/22 02:04:52;;;;;;;8.75;4.60;;;10.90;99.90;;;;;;5075022;28;20036;-42
2023/04/22 02:07:18;;;;;;;8.13;4.60;;;10.90;99.90;;;;;;5074747;28;20066;-41
2023/04/22 02:09:43;;;;;;;7.87;4.50;;;10.90;99.90;;;;;;5073952;28;20051;-41
2023/04/22 02:12:09;;;;;;;8.13;4.70;;;10.90;99.90;;;;;;5075364;28;20044;-41
2023/04/22 02:14:35;;;;;;;8.00;4.43;;;10.80;99.90;;;;;;5073904;28;20044;-41
2023/04/22 02:17:03;;;;;;;7.13;4.23;;;10.80;99.90;;;;;;5075098;28;20479;-42
2023/04/22 02:19:29;;;;;;;6.70;3.90;;;10.70;99.90;;;;;;5074220;28;20063;-41
2023/04/22 02:21:55;;;;;;;7.30;4.13;;;10.70;99.90;;;;;;5074892;28;20040;-41
2023/04/22 02:24:21;;;;;;;8.55;4.53;;;10.60;99.90;;;;;;5074326;28;20052;-41
2023/04/22 02:26:47;;;;;;;7.93;4.60;;;10.50;99.90;;;;;;5090721;28;20082;-41
2023/04/22 02:29:13;;;;;;;;;;;10.40;99.90;;;;;;5074392;28;20062;-41
2023/04/22 02:31:39;;;;;;;7.57;4.05;;;10.30;99.90;;;;;;5074442;28;20418;-42
2023/04/22 02:34:04;;;;;;;7.20;4.87;;;10.20;99.90;;;;;;5074547;28;20132;-41
2023/04/22 02:36:31;;;;;;;8.50;4.67;;;10.20;99.90;;;;;;5073495;28;20051;-41
2023/04/22 02:38:57;;;;;;;7.35;4.38;;;10.10;99.90;;;;;;5073376;28;20545;-41
2023/04/22 02:41:23;;;;;;;8.45;5.00;;;10.20;99.90;;;;;;5073681;28;20040;-41
2023/04/22 02:43:49;;;;;;;8.27;4.97;;;10.20;99.90;;;;;;5074389;28;20051;-42
2023/04/22 02:46:15;;;;;;;7.20;4.23;;;10.20;99.90;;;;;;5074476;28;20041;-42
2023/04/22 02:48:41;;;;;;;7.25;4.70;;;10.20;99.90;;;;;;5074489;28;20041;-41
2023/04/22 02:51:07;;;;;;;7.88;4.20;;;10.20;99.90;;;;;;5056576;28;20052;-41
2023/04/22 02:53:33;;;;;;;8.67;4.37;;;10.20;99.90;;;;;;5073551;28;20082;-41
2023/04/22 02:55:59;;;;;;;8.23;4.60;;;10.20;99.90;;;;;;5073236;28;20048;-42
2023/04/22 02:58:25;;;;;;;7.22;4.40;;;10.20;99.90;;;;;;5072286;28;20067;-41
2023/04/22 03:00:51;;;;;;;7.60;4.95;;;10.20;99.90;;;;;;5074182;28;20397;-42
2023/04/22 03:03:17;;;;;;;8.45;4.43;;;10.20;99.90;;;;;;5072917;28;20049;-41
2023/04/22 03:05:43;;;;;;;10.10;4.63;;;10.20;99.90;;;;;;5074148;28;20047;-41
2023/04/22 03:08:09;;;;;;;8.13;4.33;;;10.30;99.90;;;;;;5073153;28;20366;-41
2023/04/22 03:10:35;;;;;;;9.00;4.70;;;10.30;99.90;;;;;;5073022;28;20380;-41
2023/04/22 03:13:01;;;;;;;7.50;4.65;;;10.20;99.90;;;;;;5073088;28;20078;-41
2023/04/22 03:15:27;;;;;;;7.38;4.57;;;10.20;99.90;;;;;;5055866;28;20045;-41
2023/04/22 03:17:52;;;;;;;7.83;4.80;;;10.10;99.90;;;;;;5074206;28;20043;-42
2023/04/22 03:20:19;;;;;;;7.20;4.57;;;10.10;99.90;;;;;;5073994;28;20609;-41
2023/04/22 03:22:45;;;;;;;9.05;4.75;;;10.10;99.90;;;;;;5072925;28;20041;-41
2023/04/22 03:25:11;;;;;;;6.77;3.93;;;10.10;99.90;;;;;;5072609;28;20061;-41
2023/04/22 03:27:36;;;;;;;7.82;4.38;;;10.00;99.90;;;;;;5073789;28;20487;-41
2023/04/22 03:30:04;;;;;;;7.57;4.57;;;9.90;99.90;;;;;;5073818;28;20060;-42
2023/04/22 03:32:30;;;;;;;7.25;3.97;;;9.90;99.90;;;;;;5073910;28;20158;-41
2023/04/22 03:34:55;;;;;;;7.07;4.17;;;9.90;99.90;;;;;;5073675;28;20123;-41
2023/04/22 03:37:21;;;;;;;9.40;5.00;;;9.90;99.90;;;;;;5055860;28;20053;-41
2023/04/22 03:39:47;;;;;;;5.70;4.00;;;9.90;99.90;;;;;;5073198;28;20056;-41
2023/04/22 03:42:13;;;;;;;6.73;3.87;;;9.90;99.90;;;;;;5073710;28;20396;-42
2023/04/22 03:44:39;;;;;;;;;;;9.90;99.90;;;;;;5056244;28;20135;-42
2023/04/22 03:47:05;;;;;;;7.30;4.38;;;9.90;99.90;;;;;;5073631;28;19996;-41
2023/04/22 03:49:31;;;;;;;7.17;3.97;;;9.80;99.90;;;;;;5072390;28;20045;-41
2023/04/22 03:51:56;;;;;;;7.50;3.97;;;9.70;99.90;;;;;;5055689;28;20091;-41
2023/04/22 03:54:23;;;;;;;6.93;4.17;;;9.60;99.90;;;;;;5072560;28;20092;-41
2023/04/22 03:56:49;;;;;;;7.30;4.45;;;9.40;99.90;;;;;;5073391;28;20056;-41
2023/04/22 03:59:14;;;;;;;7.77;4.67;;;9.30;99.90;;;;;;5073265;28;20047;-42
2023/04/22 04:01:40;;;;;;;8.93;5.30;;;9.20;99.90;;;;;;5072155;28;20135;-41
2023/04/22 04:04:06;;;;;;;8.40;5.27;;;9.00;99.90;;;;;;5072549;28;20076;-42
2023/04/22 04:06:32;;;;;;;8.60;5.23;;;8.90;99.90;;;;;;5072673;28;20502;-41
2023/04/22 04:08:58;;;;;;;9.35;5.68;;;8.90;99.90;;;;;;5073752;28;20080;-41
2023/04/22 04:11:24;;;;;;;14.37;6.43;;;8.80;99.90;;;;;;5077354;28;20111;-41
2023/04/22 04:13:49;;;;;;;12.55;6.28;;;8.80;99.90;;;;;;5076233;28;20452;-41
2023/04/22 04:16:15;;;;;;;9.10;5.80;;;8.80;99.90;;;;;;5077203;28;20076;-41
2023/04/22 04:18:41;;;;;;;11.13;5.93;;;8.80;99.90;;;;;;5077340;28;20041;-41
2023/04/22 04:21:07;;;;;;;10.40;7.27;;;8.80;99.90;;;;;;5077396;28;20462;-41
2023/04/22 04:23:32;;;;;;;9.65;6.43;;;8.80;99.90;;;;;;5076600;28;20289;-41
2023/04/22 04:26:01;;;;;;;9.50;6.33;;;8.70;99.90;;;;;;5077185;28;20036;-41
2023/04/22 04:28:31;;;;;;;10.30;6.55;;;8.70;99.90;;;;;;5075813;28;20413;-41
2023/04/22 04:30:57;;;;;;;11.82;7.30;;;8.70;99.90;;;;;;5076144;28;20369;-41
2023/04/22 04:33:23;;;;;;;11.25;7.00;;;8.70;99.90;;;;;;5075913;28;20083;-41
2023/04/22 04:35:50;;;;;;;9.00;6.40;;;8.80;99.90;;;;;;5075743;28;20056;-41
2023/04/22 04:38:16;;;;;;;10.43;6.28;;;8.70;99.90;;;;;;5075521;28;20057;-41
2023/04/22 04:40:42;;;;;;;10.37;6.67;;;8.80;99.90;;;;;;5076010;28;20052;-41
2023/04/22 04:43:08;;;;;;;10.90;6.90;;;8.80;99.90;;;;;;5058876;28;20102;-41
2023/04/22 04:45:37;;;;;;;9.67;6.63;;;8.70;99.90;;;;;;5075615;28;20048;-42
2023/04/22 04:48:07;;;;;;;9.73;6.53;;;8.70;99.90;;;;;;5076816;28;20757;-41
2023/04/22 04:50:33;;;;;;;10.10;6.95;;;8.70;99.90;;;;;;5059623;28;20051;-41
2023/04/22 04:53:00;;;;;;;10.77;6.93;;;8.70;99.90;;;;;;5075593;28;20044;-41
2023/04/22 04:55:26;;;;;;;10.75;6.93;;;8.70;99.90;;;;;;5058776;28;20395;-41
2023/04/22 04:57:51;;;;;;;12.10;7.10;;;8.70;99.90;;;;;;5076392;28;20044;-41
2023/04/22 05:00:17;;;;;;;10.23;7.07;;;8.70;99.90;;;;;;5075640;28;20117;-41
2023/04/22 05:02:43;;;;;;;12.27;7.22;;;8.70;99.90;;;;;;5076489;28;20080;-41
2023/04/22 05:05:09;;;;;;;10.57;6.60;;;8.80;99.90;;;;;;5058979;28;20103;-41
2023/04/22 05:07:35;;;;;;;10.15;7.28;;;8.80;99.90;;;;;;5076360;28;20426;-41
2023/04/22 05:10:01;;;;;;;10.67;6.77;;;9.00;99.90;;;;;;5075165;28;20044;-41
2023/04/22 05:12:26;;;;;;;11.93;7.72;;;9.00;99.90;;;;;;5076152;28;20110;-41
2023/04/22 05:14:52;;;;;;;10.13;6.63;;;9.10;99.90;;;;;;5075045;28;20051;-41
2023/04/22 05:17:18;;;;;;;10.83;6.57;;;9.10;99.90;;;;;;5076469;28;20048;-41
2023/04/22 05:19:44;;;;;;;10.15;6.88;;;9.10;99.90;;;;;;5076519;28;20048;-41
2023/04/22 05:22:10;;;;;;;11.77;7.33;;;9.20;99.90;;;;;;5073995;28;20502;-41
2023/04/22 05:24:36;;;;;;;11.27;6.77;;;9.20;99.90;;;;;;5074900;28;20087;-41
2023/04/22 05:27:02;;;;;;;10.75;6.90;;;9.40;99.90;;;;;;5076026;28;20290;-41
2023/04/22 05:29:28;;;;;;;12.63;7.38;;;9.40;99.90;;;;;;5075083;28;20052;-41
2023/04/22 05:31:53;;;;;;;10.93;7.40;;;9.40;99.90;;;;;;5075975;28;20123;-41
2023/04/22 05:34:19;;;;;;;12.17;6.83;;;9.30;99.90;;;;;;5075026;28;20514;-41
2023/04/22 05:36:45;;;;;;;9.97;6.70;;;9.30;99.90;;;;;;5075630;28;20399;-42
2023/04/22 05:39:11;;;;;;;11.47;6.83;;;9.20;99.90;;;;;;5075640;28;20063;-41
2023/04/22 05:41:37;;;;;;;9.65;6.30;;;9.20;99.90;;;;;;5075595;28;20036;-41
2023/04/22 05:44:03;;;;;;;10.27;6.53;;;9.20;99.90;;;;;;5075969;28;20182;-41
2023/04/22 05:46:28;;;;;;;9.00;6.20;;;9.20;99.90;;;;;;5075750;28;20423;-41
2023/04/22 05:48:57;;;;;;;10.30;6.80;;;9.20;99.90;;;;;;5075396;28;20055;-41
2023/04/22 05:51:23;;;;;;;10.43;6.97;;;9.20;99.90;;;;;;5075455;28;20484;-41
2023/04/22 05:53:49;;;;;;;9.13;6.32;;;9.20;99.90;;;;;;5074477;28;20041;-41
2023/04/22 05:56:15;;;;;;;11.35;6.70;;;9.20;99.90;;;;;;5075184;28;20040;-41
2023/04/22 05:58:41;;;;;;;10.60;7.10;;;9.20;99.90;;;;;;5075476;28;20045;-41
2023/04/22 06:01:07;;;;;;;10.10;6.60;;;9.20;99.90;;;;;;5075404;28;20567;-41
2023/04/22 06:03:33;;;;;;;10.75;6.88;;;9.30;99.90;;;;;;5075283;28;20047;-41
2023/04/22 06:05:59;;;;;;;9.97;6.73;;;9.30;99.90;;;;;;5075351;28;20403;-41
2023/04/22 06:08:25;;;;;;;13.03;7.70;;;9.40;99.90;;;;;;5074257;28;20045;-41
2023/04/22 06:10:51;;;;;;;12.38;7.32;;;9.50;99.90;;;;;;5075029;28;20283;-41
2023/04/22 06:13:17;;;;;;;9.60;6.83;;;9.50;99.90;;;;;;5074924;28;20135;-41
2023/04/22 06:15:42;;;;;;;11.33;7.10;;;9.60;99.90;;;;;;5057409;28;20048;-41
2023/04/22 06:18:08;;;;;;;11.53;8.00;;;9.70;99.90;;;;;;5075151;28;20395;-41
2023/04/22 06:20:35;;;;;;;11.37;7.27;;;9.70;99.90;;;;;;5075143;28;20052;-41
2023/04/22 06:23:00;;;;;;;;;;;9.80;99.90;;;;;;5074185;28;20036;-42
2023/04/22 06:25:26;;;;;;;11.25;7.28;;;9.80;99.90;;;;;;5057222;28;19928;-41
2023/04/22 06:27:52;;;;;;;11.80;6.78;;;9.90;99.90;;;;;;5074909;28;20045;-41
2023/04/22 06:30:18;;;;;;;12.27;7.40;;;10.00;99.90;;;;;;5074735;28;20499;-41
2023/04/22 06:32:43;;;;;;;12.77;7.43;;;10.20;99.90;;;;;;5073563;28;20395;-41
2023/04/22 06:35:09;;;;;;;14.23;7.73;;;10.30;99.90;;;;;;5074810;28;20047;-41
2023/04/22 06:37:35;;;;;;;13.20;7.37;;;10.50;99.90;;;;;;5073258;28;20533;-41
2023/04/22 06:40:02;;;;;;;12.48;7.22;;;10.60;99.90;;;;;;5074431;28;20458;-42
2023/04/22 06:42:28;;;;;;;11.40;7.13;;;10.70;99.90;;;;;;5074825;28;20045;-41
2023/04/22 06:44:53;;;;;;;10.47;6.93;;;10.80;99.90;;;;;;5074618;28;20067;-41
2023/04/22 06:47:19;;;;;;;11.67;7.70;;;11.00;99.90;;;;;;5074351;28;20049;-42
2023/04/22 06:49:45;;;;;;;10.33;7.17;;;11.10;99.90;;;;;;5074632;28;20054;-42
2023/04/22 06:52:11;;;;;;;11.30;7.57;;;11.20;99.90;;;;;;5074314;28;20053;-42
2023/04/22 06:54:37;;;;;;;12.03;7.70;;;11.30;99.90;;;;;;5074227;28;20041;-41
2023/04/22 06:57:03;;;;;;;10.77;7.15;;;11.40;99.90;;;;;;5074348;28;20049;-41
2023/04/22 06:59:28;;;;;;;12.23;7.43;;;11.40;99.90;;;;;;5074290;28;20089;-42
2023/04/22 07:01:54;;;;;;;12.30;8.30;;;11.50;99.90;;;;;;5056954;28;20141;-41
2023/04/22 07:04:20;;;;;;;10.97;7.50;;;11.50;99.90;;;;;;5074196;28;20044;-42
2023/04/22 07:06:46;;;;;;;11.13;7.80;;;11.50;99.90;;;;;;5073202;28;20049;-42
2023/04/22 07:09:12;;;;;;;11.87;7.30;;;11.50;99.90;;;;;;5073931;28;20051;-41
2023/04/22 07:11:37;;;;;;;12.03;7.53;;;11.60;99.90;;;;;;5073384;28;20041;-42
2023/04/22 07:14:03;;;;;;;13.40;8.23;;;11.60;99.90;;;;;;5073140;28;20131;-42
2023/04/22 07:16:29;;;;;;;10.80;7.33;;;11.70;99.90;;;;;;5073923;28;20090;-42
2023/04/22 07:18:54;;;;;;;11.60;7.33;;;11.70;99.90;;;;;;5072999;28;20127;-41
2023/04/22 07:21:20;;;;;;;12.97;7.03;;;11.70;99.90;;;;;;5072904;28;20127;-41
2023/04/22 07:23:46;;;;;;;12.73;7.50;;;11.80;99.90;;;;;;5073878;28;20040;-42
2023/04/22 07:26:11;;;;;;;10.87;6.93;;;11.80;99.90;;;;;;5073908;28;20469;-42
2023/04/22 07:28:37;;;;;;;12.10;7.10;;;11.90;99.90;;;;;;5073865;28;20056;-42
2023/04/22 07:31:03;;;;;;;10.27;6.53;;;11.90;99.90;;;;;;5072717;28;20287;-42
2023/04/22 07:33:29;;;;;;;11.03;7.20;;;12.00;99.90;;;;;;5073832;28;20518;-42
2023/04/22 07:35:54;;;;;;;10.67;6.10;;;12.00;99.90;;;;;;5072531;28;20047;-41
2023/04/22 07:38:20;;;;;;;10.23;6.77;;;12.10;99.90;;;;;;5073831;28;20057;-42
2023/04/22 07:40:46;;;;;;;10.43;6.53;;;12.20;99.90;;;;;;5073875;28;20135;-41
2023/04/22 07:43:11;;;;;;;9.97;6.33;;;12.20;99.90;;;;;;5074122;28;20139;-41
2023/04/22 07:45:37;;;;;;;12.40;6.67;;;12.30;99.90;;;;;;5073417;28;20037;-42
2023/04/22 07:48:03;;;;;;;9.87;5.77;;;12.30;99.90;;;;;;5056196;28;20123;-42
2023/04/22 07:50:29;;;;;;;9.73;5.57;;;12.40;99.90;;;;;;5072651;28;20184;-42
2023/04/22 07:52:55;;;;;;;10.67;5.70;;;12.50;99.90;;;;;;5072402;28;20135;-42
2023/04/22 07:55:21;;;;;;;9.80;5.50;;;12.60;99.90;;;;;;5056015;28;20047;-42
2023/04/22 07:57:46;;;;;;;9.57;5.77;;;12.60;99.90;;;;;;5072598;28;20044;-42
2023/04/22 08:00:13;;;;;;;8.27;5.30;;;12.70;99.90;;;;;;5072606;28;20044;-42
2023/04/22 08:02:39;;;;;;;8.77;5.47;;;12.80;99.90;;;;;;5056208;28;20044;-42
2023/04/22 08:05:06;;;;;;;9.82;5.30;;;12.80;99.90;;;;;;5072424;28;20049;-42
2023/04/22 08:07:31;;;;;;;11.05;5.38;;;12.90;99.90;;;;;;5072416;28;20053;-42
2023/04/22 08:09:57;;;;;;;8.17;5.10;;;13.00;99.90;;;;;;5072218;28;20063;-42
2023/04/22 08:12:23;;;;;;;10.83;5.50;;;13.00;99.90;;;;;;5073400;28;20287;-42
2023/04/22 08:14:49;;;;;;;10.40;5.60;;;13.10;99.90;;;;;;5072346;28;20182;-42
2023/04/22 08:17:15;;;;;;;8.55;5.45;;;13.20;99.90;;;;;;5073367;28;20055;-42
2023/04/22 08:19:40;;;;;;;8.83;5.17;;;13.30;99.90;;;;;;5072259;28;20132;-42
2023/04/22 08:22:06;;;;;;;8.30;5.27;;;13.30;99.90;;;;;;5072363;28;20056;-42
2023/04/22 08:24:32;;;;;;;9.67;5.53;;;13.40;99.90;;;;;;5072316;28;20341;-42
2023/04/22 08:26:58;;;;;;;9.80;4.97;;;13.50;99.90;;;;;;5072390;28;20040;-42
2023/04/22 08:29:23;;;;;;;9.70;4.95;;;13.60;99.90;;;;;;5073208;28;20040;-42
2023/04/22 08:31:49;;;;;;;9.88;5.47;;;13.70;99.90;;;;;;5071929;28;20094;-42
2023/04/22 08:34:15;;;;;;;9.33;5.63;;;13.80;99.90;;;;;;5073112;28;20087;-42
2023/04/22 08:36:41;;;;;;;8.23;4.73;;;13.90;99.90;;;;;;5071828;28;20750;-42
2023/04/22 08:39:08;;;;;;;9.10;5.38;;;14.00;99.90;;;;;;5073478;28;20072;-42
2023/04/22 08:41:35;;;;;;;9.75;4.95;;;14.10;99.90;;;;;;5072177;28;20056;-42
2023/04/22 08:44:02;;;;;;;9.55;5.93;;;14.20;99.90;;;;;;5072199;28;20515;-42
2023/04/22 08:46:29;;;;;;;9.18;4.80;;;14.30;99.90;;;;;;5073063;28;20064;-42
2023/04/22 08:49:01;;;;;;;9.63;5.85;;;14.40;99.90;;;;;;5072852;28;20052;-42
2023/04/22 08:51:27;;;;;;;9.82;5.35;;;14.60;99.90;;;;;;5071894;28;20188;-42
2023/04/22 08:53:53;;;;;;;8.80;5.75;;;14.70;99.90;;;;;;5072881;28;20098;-42
2023/04/22 08:56:20;;;;;;;9.57;5.20;;;14.90;99.90;;;;;;5057524;28;20051;-42
2023/04/22 08:58:47;;;;;;;8.43;4.72;;;15.00;99.90;;;;;;5076650;28;20052;-42
2023/04/22 09:01:14;;;;;;;8.65;5.47;;;15.10;99.90;;;;;;5075702;28;20123;-43
2023/04/22 09:03:41;;;;;;;8.35;4.93;;;15.20;99.90;;;;;;5076384;28;20052;-42
2023/04/22 09:06:09;;;;;;;7.47;5.10;;;15.30;99.90;;;;;;5076422;28;20532;-42
2023/04/22 09:08:35;;;;;;;8.30;4.82;;;15.40;99.90;;;;;;5076862;28;20048;-42
2023/04/22 09:11:02;;;;;;;8.07;5.00;;;15.50;99.90;;;;;;5075106;28;20052;-42
2023/04/22 09:13:28;;;;;;;9.07;5.25;;;15.50;99.90;;;;;;5075632;28;20060;-42
2023/04/22 09:15:53;;;;;;;7.68;4.80;;;15.70;99.90;;;;;;5075109;28;20049;-41
2023/04/22 09:18:20;;;;;;;9.73;5.33;;;15.70;99.90;;;;;;5076116;28;20131;-42
2023/04/22 09:20:53;;;;;;;11.20;4.75;;;15.80;99.90;;;;;;5076047;28;20403;-42
2023/04/22 09:23:18;;;;;;;8.95;5.35;;;15.80;99.90;;;;;;5076245;28;20059;-42
2023/04/22 09:25:45;;;;;;;9.40;5.60;;;15.90;99.90;;;;;;5075143;28;20060;-42
2023/04/22 09:28:12;;;;;;;;;;;15.90;99.90;;;;;;5075874;28;20399;-42
2023/04/22 09:30:37;;;;;;;9.73;5.68;;;16.00;99.90;;;;;;5076144;28;20394;-42
2023/04/22 09:33:05;;;;;;;8.63;4.63;;;16.10;99.90;;;;;;5075942;28;20198;-42
2023/04/22 09:35:34;;;;;;;7.40;4.95;;;16.20;99.90;;;;;;5075502;28;20707;-42
2023/04/22 09:38:02;;;;;;;10.13;5.25;;;16.30;99.90;;;;;;5075498;28;20067;-42
2023/04/22 09:40:29;;;;;;;7.50;5.20;;;16.40;99.90;;;;;;5075859;28;20051;-42
2023/04/22 09:42:57;;;;;;;7.88;4.70;;;16.50;99.90;;;;;;5075849;28;20154;-42
2023/04/22 09:45:42;;;;;;;8.57;4.82;;;16.60;99.90;;;;;;5074667;28;20052;-42
2023/04/22 09:48:12;;;;;;;8.35;4.68;;;16.70;99.90;;;;;;5075294;28;20095;-42
2023/04/22 09:50:42;;;;;;;8.27;4.15;;;16.80;99.90;;;;;;5074659;28;20062;-42
2023/04/22 09:53:10;;;;;;;8.68;4.00;;;16.90;99.90;;;;;;5075427;28;20048;-42
2023/04/22 09:55:42;;;;;;;6.38;3.83;;;17.00;99.90;;;;;;5075387;28;20036;-42
2023/04/22 09:58:12;;;;;;;7.88;4.40;;;17.10;99.90;;;;;;5075280;28;20048;-42
2023/04/22 10:00:44;;;;;;;7.57;3.90;;;17.10;99.90;;;;;;5074318;28;20048;-42
2023/04/22 10:03:09;;;;;;;6.72;3.88;;;17.20;99.90;;;;;;5075362;28;20040;-43
2023/04/22 10:05:36;;;;;;;7.45;3.95;;;17.30;99.90;;;;;;5074542;28;20430;-43
2023/04/22 10:08:06;;;;;;;7.13;3.85;;;17.30;99.90;;;;;;5073609;28;20048;-42
2023/04/22 10:10:33;;;;;;;8.85;4.80;;;17.30;99.90;;;;;;5075002;28;20051;-42
2023/04/22 10:13:00;;;;;;;8.48;4.28;;;17.30;99.90;;;;;;5075021;28;20048;-42
2023/04/22 10:15:30;;;;;;;6.78;4.15;;;17.30;99.90;;;;;;5075043;28;20090;-42
2023/04/22 10:17:56;;;;;;;7.75;4.43;;;17.40;99.90;;;;;;5075242;28;20530;-42
2023/04/22 10:20:24;;;;;;;8.20;4.60;;;17.50;99.90;;;;;;5075080;28;20123;-42
2023/04/22 10:22:51;;;;;;;8.20;4.15;;;17.60;99.90;;;;;;5074039;28;20106;-42
2023/04/22 10:25:25;;;;;;;7.55;4.40;;;17.70;99.90;;;;;;5073720;28;20484;-42
2023/04/22 10:28:08;;;;;;;8.60;4.50;;;17.80;99.90;;;;;;5074879;28;20119;-42
2023/04/22 10:30:36;;;;;;;8.77;4.30;;;17.90;99.90;;;;;;5074970;28;20095;-42
2023/04/22 10:33:20;;;;;;;7.97;4.57;;;18.00;99.90;;;;;;5073312;28;20488;-42
2023/04/22 10:36:07;;;;;;;6.90;4.30;;;18.10;99.90;;;;;;5073334;28;20044;-44
2023/04/22 10:38:37;;;;;;;7.43;4.40;;;18.20;99.90;;;;;;5073537;28;20052;-42
2023/04/22 10:41:03;;;;;;;9.65;4.60;;;18.30;99.90;;;;;;5073447;28;20056;-42
2023/04/22 10:43:54;;;;;;;7.35;4.03;;;18.50;99.90;;;;;;5073822;28;20214;-42
2023/04/22 10:46:30;;;;;;;6.32;3.38;;;18.60;99.90;;;;;;5074270;28;20080;-42
2023/04/22 10:48:57;;;;;;;7.10;3.83;;;18.70;99.90;;;;;;5074556;28;20114;-42
2023/04/22 10:51:39;;;;;;;6.53;3.22;;;18.70;99.90;;;;;;5073592;28;20283;-43
2023/04/22 10:54:05;;;;;;;6.93;3.47;;;18.80;99.90;;;;;;5073258;28;20098;-42
2023/04/22 10:56:31;;;;;;;6.50;3.50;;;18.90;99.90;;;;;;5073031;28;20055;-42
2023/04/22 10:58:56;;;;;;;6.60;3.63;;;19.00;99.90;;;;;;5074365;28;20454;-43
2023/04/22 11:01:22;;;;;;;5.45;3.00;;;19.10;99.90;;;;;;5074339;28;20564;-43
2023/04/22 11:03:50;;;;;;;7.20;3.30;;;19.10;99.90;;;;;;5074191;28;20048;-42
2023/04/22 11:06:18;;;;;;;7.47;3.30;;;19.20;99.90;;;;;;5074113;28;20048;-42
2023/04/22 11:08:48;;;;;;;6.65;3.25;;;19.20;99.90;;;;;;5073052;28;20064;-42
2023/04/22 11:11:17;;;;;;;6.32;3.33;;;19.30;99.90;;;;;;5073886;28;20455;-42
2023/04/22 11:13:43;;;;;;;6.28;3.28;;;19.40;99.90;;;;;;5073359;28;20048;-42
2023/04/22 11:16:09;;;;;;;5.97;3.42;;;19.40;99.90;;;;;;5074048;28;20051;-43
2023/04/22 11:18:36;;;;;;;5.72;2.88;;;19.50;99.90;;;;;;5072428;28;20479;-42
2023/04/22 11:21:05;;;;;;;8.35;3.00;;;19.60;99.90;;;;;;5073700;28;20054;-42
2023/04/22 11:23:30;;;;;;;5.70;2.72;;;19.80;99.90;;;;;;5072759;28;20048;-42
2023/04/22 11:26:02;;;;;;;6.32;2.75;;;19.90;99.90;;;;;;5072673;28;20059;-42
2023/04/22 11:28:28;;;;;;;5.45;2.40;;;19.90;99.90;;;;;;5073856;28;20056;-43
2023/04/22 11:31:04;;;;;;;;;;;20.10;99.90;;;;;;5074331;28;20403;-42
2023/04/22 11:33:32;;;;;;;5.47;2.63;;;20.20;99.90;;;;;;5073844;28;20436;-42
2023/04/22 11:35:58;;;;;;;5.60;2.67;;;20.30;99.90;;;;;;5072364;28;20071;-42
2023/04/22 11:38:23;;;;;;;6.90;2.92;;;20.40;99.90;;;;;;5073763;28;20479;-42
2023/04/22 11:40:49;;;;;;;6.07;2.70;;;20.50;99.90;;;;;;5073821;28;20437;-42
2023/04/22 11:43:17;;;;;;;9.18;2.95;;;20.60;99.90;;;;;;5073649;28;20048;-43
2023/04/22 11:45:43;;;;;;;7.75;2.97;;;20.60;99.90;;;;;;5073829;28;20076;-43
2023/04/22 11:48:10;;;;;;;6.80;2.67;;;20.50;99.90;;;;;;5073816;28;20157;-42
2023/04/22 11:50:39;;;;;;;5.47;2.60;;;20.40;99.90;;;;;;5073604;28;20052;-42
2023/04/22 11:53:18;;;;;;;5.60;2.90;;;20.30;99.90;;;;;;5073366;28;20053;-42
2023/04/22 11:55:46;;;;;;;6.32;2.88;;;20.20;99.90;;;;;;5073564;28;20040;-42
2023/04/22 11:58:18;;;;;;;5.50;2.63;;;20.20;99.90;;;;;;5073918;28;20056;-42
2023/04/22 12:00:46;;;;;;;6.88;3.38;;;20.20;99.90;;;;;;5073383;28;20060;-42
2023/04/22 12:03:26;;;;;;;7.65;3.47;;;20.20;99.90;;;;;;5073239;28;20044;-42
2023/04/22 12:05:56;;;;;;;6.03;2.95;;;20.30;99.90;;;;;;5073617;28;20182;-42
2023/04/22 12:08:29;;;;;;;7.50;3.17;;;20.30;99.90;;;;;;5072319;28;20110;-43
2023/04/22 12:11:00;;;;;;;5.65;2.83;;;20.40;99.90;;;;;;5072373;28;20051;-42
2023/04/22 12:13:32;;;;;;;5.22;2.63;;;20.50;99.90;;;;;;5073424;28;20049;-43
2023/04/22 12:16:03;;;;;;;7.00;2.70;;;20.50;99.90;;;;;;5073230;28;20052;-42
2023/04/22 12:18:32;;;;;;;5.80;2.70;;;20.50;99.90;;;;;;5073492;28;20049;-42
2023/04/22 12:21:06;;;;;;;5.18;2.67;;;20.50;99.90;;;;;;5072822;28;20052;-42
2023/04/22 12:23:44;;;;;;;4.72;2.40;;;20.50;99.90;;;;;;5072306;28;20056;-42
2023/04/22 12:26:14;;;;;;;4.03;1.92;;;20.40;99.90;;;;;;5073155;28;20045;-43
2023/04/22 12:28:41;;;;;;;4.22;2.28;;;20.40;99.90;;;;;;5073303;28;20044;-42
2023/04/22 12:31:07;;;;;;;5.05;2.70;;;20.30;99.90;;;;;;5075411;28;20052;-42
2023/04/22 12:33:34;;;;;;;5.80;2.35;;;20.20;99.90;;;;;;5077407;28;20464;-43
2023/04/22 12:36:00;;;;;;;4.57;2.30;;;20.10;99.90;;;;;;5075734;28;20076;-43
2023/04/22 12:38:25;;;;;;;4.47;2.42;;;19.90;99.90;;;;;;5077088;28;20149;-42
2023/04/22 12:40:52;;;;;;;27.92;4.53;;;19.90;99.90;;;;;;5076891;28;20053;-42
2023/04/22 12:43:17;;;;;;;;;;;19.80;99.90;;;;;;5076851;28;20055;-42
2023/04/22 12:45:43;;;;;;;38.28;5.03;;;19.70;99.90;;;;;;5076850;28;20325;-42